sensor_id;sensor_type;location;lat;lon;timestamp;P1;durP1;ratioP1;P2;durP2;ratioP2
51618;SDS011;38518;53.164;5.430;2023-05-10T00:01:29;13.75;;;12.45;;
51618;SDS011;38518;53.164;5.430;2023-05-10T00:03:55;13.32;;;12.23;;
51618;SDS011;38518;53.164;5.430;2023-05-10T00:06:21;16.90;;;15.32;;
51618;SDS011;38518;53.164;5.430;2023-05-10T00:08:47;15.10;;;13.80;;
51618;SDS011;38518;53.164;5.430;2023-05-10T00:11:12;13.75;;;12.65;;
51618;SDS011;38518;53.164;5.430;2023-05-10T00:13:38;13.55;;;12.32;;
51618;SDS011;38518;53.164;5.430;2023-05-10T00:16:05;18.02;;;16.55;;
51618;SDS011;38518;53.164;5.430;2023-05-10T00:18:31;19.38;;;17.45;;
51618;SDS011;38518;53.164;5.430;2023-05-10T00:20:57;16.98;;;15.27;;
51618;SDS011;38518;53.164;5.430;2023-05-10T00:23:22;20.13;;;18.02;;
51618;SDS011;38518;53.164;5.430;2023-05-10T00:25:48;29.55;;;18.83;;
51618;SDS011;38518;53.164;5.430;2023-05-10T00:28:16;33.03;;;18.67;;
51618;SDS011;38518;53.164;5.430;2023-05-10T00:30:42;33.63;;;18.85;;
51618;SDS011;38518;53.164;5.430;2023-05-10T00:33:07;40.45;;;17.70;;
51618;SDS011;38518;53.164;5.430;2023-05-10T00:35:33;47.58;;;17.10;;
51618;SDS011;38518;53.164;5.430;2023-05-10T00:37:59;53.67;;;17.95;;
51618;SDS011;38518;53.164;5.430;2023-05-10T00:40:25;42.20;;;18.60;;
51618;SDS011;38518;53.164;5.430;2023-05-10T00:42:51;47.47;;;20.60;;
51618;SDS011;38518;53.164;5.430;2023-05-10T00:45:16;35.08;;;18.27;;
51618;SDS011;38518;53.164;5.430;2023-05-10T00:47:42;42.25;;;24.17;;
51618;SDS011;38518;53.164;5.430;2023-05-10T00:50:08;29.00;;;20.65;;
51618;SDS011;38518;53.164;5.430;2023-05-10T00:52:34;27.65;;;22.90;;
51618;SDS011;38518;53.164;5.430;2023-05-10T00:55:00;35.58;;;21.58;;
51618;SDS011;38518;53.164;5.430;2023-05-10T00:57:28;32.53;;;18.70;;
51618;SDS011;38518;53.164;5.430;2023-05-10T00:59:54;32.95;;;18.58;;
51618;SDS011;38518;53.164;5.430;2023-05-10T01:02:19;28.10;;;18.65;;
51618;SDS011;38518;53.164;5.430;2023-05-10T01:04:45;22.02;;;18.05;;
51618;SDS011;38518;53.164;5.430;2023-05-10T01:07:11;26.45;;;17.02;;
51618;SDS011;38518;53.164;5.430;2023-05-10T01:09:37;28.33;;;16.33;;
51618;SDS011;38518;53.164;5.430;2023-05-10T01:12:03;17.33;;;14.00;;
51618;SDS011;38518;53.164;5.430;2023-05-10T01:14:31;19.05;;;13.75;;
51618;SDS011;38518;53.164;5.430;2023-05-10T01:16:58;25.58;;;17.65;;
51618;SDS011;38518;53.164;5.430;2023-05-10T01:19:26;24.23;;;14.85;;
51618;SDS011;38518;53.164;5.430;2023-05-10T01:22:10;19.58;;;15.00;;
51618;SDS011;38518;53.164;5.430;2023-05-10T01:30:35;24.77;;;11.85;;
51618;SDS011;38518;53.164;5.430;2023-05-10T01:38:26;22.33;;;18.35;;
51618;SDS011;38518;53.164;5.430;2023-05-10T01:41:14;28.02;;;16.92;;
51618;SDS011;38518;53.164;5.430;2023-05-10T01:43:51;14.10;;;11.18;;
51618;SDS011;38518;53.164;5.430;2023-05-10T01:46:43;14.75;;;13.25;;
51618;SDS011;38518;53.164;5.430;2023-05-10T01:49:09;14.57;;;13.20;;
51618;SDS011;38518;53.164;5.430;2023-05-10T01:51:50;12.95;;;11.65;;
51618;SDS011;38518;53.164;5.430;2023-05-10T01:54:20;9.80;;;8.90;;
51618;SDS011;38518;53.164;5.430;2023-05-10T01:56:47;10.32;;;9.32;;
51618;SDS011;38518;53.164;5.430;2023-05-10T01:59:20;11.43;;;10.32;;
51618;SDS011;38518;53.164;5.430;2023-05-10T02:01:47;10.18;;;9.27;;
51618;SDS011;38518;53.164;5.430;2023-05-10T02:04:16;9.82;;;8.95;;
51618;SDS011;38518;53.164;5.430;2023-05-10T02:06:44;8.27;;;7.45;;
51618;SDS011;38518;53.164;5.430;2023-05-10T02:09:11;8.15;;;7.45;;
51618;SDS011;38518;53.164;5.430;2023-05-10T02:11:38;9.48;;;8.65;;
51618;SDS011;38518;53.164;5.430;2023-05-10T02:14:07;8.52;;;7.65;;
51618;SDS011;38518;53.164;5.430;2023-05-10T02:16:35;8.00;;;7.30;;
51618;SDS011;38518;53.164;5.430;2023-05-10T02:19:03;8.60;;;7.38;;
51618;SDS011;38518;53.164;5.430;2023-05-10T02:21:30;7.57;;;6.88;;
51618;SDS011;38518;53.164;5.430;2023-05-10T02:23:56;9.02;;;7.78;;
51618;SDS011;38518;53.164;5.430;2023-05-10T02:26:23;8.48;;;7.68;;
51618;SDS011;38518;53.164;5.430;2023-05-10T02:28:51;10.38;;;8.55;;
51618;SDS011;38518;53.164;5.430;2023-05-10T02:31:19;10.07;;;8.93;;
51618;SDS011;38518;53.164;5.430;2023-05-10T02:33:46;8.18;;;7.10;;
51618;SDS011;38518;53.164;5.430;2023-05-10T02:36:14;4.82;;;4.35;;
51618;SDS011;38518;53.164;5.430;2023-05-10T02:38:41;5.45;;;5.05;;
51618;SDS011;38518;53.164;5.430;2023-05-10T02:41:08;6.00;;;5.50;;
51618;SDS011;38518;53.164;5.430;2023-05-10T02:43:36;6.78;;;5.57;;
51618;SDS011;38518;53.164;5.430;2023-05-10T02:46:03;6.20;;;5.55;;
51618;SDS011;38518;53.164;5.430;2023-05-10T02:48:29;6.75;;;6.13;;
51618;SDS011;38518;53.164;5.430;2023-05-10T02:50:56;6.97;;;6.35;;
51618;SDS011;38518;53.164;5.430;2023-05-10T02:53:30;7.80;;;7.00;;
51618;SDS011;38518;53.164;5.430;2023-05-10T02:56:01;6.72;;;6.13;;
51618;SDS011;38518;53.164;5.430;2023-05-10T02:58:34;6.10;;;5.43;;
51618;SDS011;38518;53.164;5.430;2023-05-10T03:01:00;6.65;;;4.90;;
51618;SDS011;38518;53.164;5.430;2023-05-10T03:03:26;6.50;;;5.90;;
51618;SDS011;38518;53.164;5.430;2023-05-10T03:05:52;7.20;;;6.50;;
51618;SDS011;38518;53.164;5.430;2023-05-10T03:08:21;5.53;;;4.78;;
51618;SDS011;38518;53.164;5.430;2023-05-10T03:10:51;5.57;;;5.05;;
51618;SDS011;38518;53.164;5.430;2023-05-10T03:13:37;5.65;;;5.22;;
51618;SDS011;38518;53.164;5.430;2023-05-10T03:16:14;6.68;;;5.32;;
51618;SDS011;38518;53.164;5.430;2023-05-10T03:21:16;9.65;;;6.05;;
51618;SDS011;38518;53.164;5.430;2023-05-10T03:26:40;6.40;;;5.80;;
51618;SDS011;38518;53.164;5.430;2023-05-10T03:29:10;6.32;;;5.72;;
51618;SDS011;38518;53.164;5.430;2023-05-10T03:31:38;7.55;;;6.30;;
51618;SDS011;38518;53.164;5.430;2023-05-10T03:34:04;8.75;;;7.53;;
51618;SDS011;38518;53.164;5.430;2023-05-10T03:36:30;7.72;;;7.03;;
51618;SDS011;38518;53.164;5.430;2023-05-10T03:38:56;8.27;;;7.18;;
51618;SDS011;38518;53.164;5.430;2023-05-10T03:41:21;6.93;;;6.22;;
51618;SDS011;38518;53.164;5.430;2023-05-10T03:43:47;6.63;;;6.00;;
51618;SDS011;38518;53.164;5.430;2023-05-10T03:46:13;6.82;;;6.22;;
51618;SDS011;38518;53.164;5.430;2023-05-10T03:48:38;8.25;;;7.47;;
51618;SDS011;38518;53.164;5.430;2023-05-10T03:51:04;8.73;;;7.53;;
51618;SDS011;38518;53.164;5.430;2023-05-10T03:53:30;9.18;;;8.27;;
51618;SDS011;38518;53.164;5.430;2023-05-10T03:55:56;8.98;;;8.18;;
51618;SDS011;38518;53.164;5.430;2023-05-10T03:58:21;10.27;;;9.38;;
51618;SDS011;38518;53.164;5.430;2023-05-10T04:00:47;9.55;;;8.75;;
51618;SDS011;38518;53.164;5.430;2023-05-10T04:03:13;11.02;;;9.95;;
51618;SDS011;38518;53.164;5.430;2023-05-10T04:05:39;10.80;;;9.70;;
51618;SDS011;38518;53.164;5.430;2023-05-10T04:08:05;10.00;;;9.10;;
51618;SDS011;38518;53.164;5.430;2023-05-10T04:10:31;10.55;;;9.35;;
51618;SDS011;38518;53.164;5.430;2023-05-10T04:12:57;10.90;;;9.45;;
51618;SDS011;38518;53.164;5.430;2023-05-10T04:15:23;9.18;;;7.60;;
51618;SDS011;38518;53.164;5.430;2023-05-10T04:17:49;8.45;;;7.57;;
51618;SDS011;38518;53.164;5.430;2023-05-10T04:20:15;9.05;;;8.13;;
51618;SDS011;38518;53.164;5.430;2023-05-10T04:22:41;10.30;;;9.30;;
51618;SDS011;38518;53.164;5.430;2023-05-10T04:25:07;13.38;;;10.20;;
51618;SDS011;38518;53.164;5.430;2023-05-10T04:27:33;9.35;;;8.45;;
51618;SDS011;38518;53.164;5.430;2023-05-10T04:29:59;10.00;;;8.95;;
51618;SDS011;38518;53.164;5.430;2023-05-10T04:32:25;9.45;;;8.45;;
51618;SDS011;38518;53.164;5.430;2023-05-10T04:34:50;12.60;;;11.32;;
51618;SDS011;38518;53.164;5.430;2023-05-10T04:37:16;11.63;;;10.43;;
51618;SDS011;38518;53.164;5.430;2023-05-10T04:39:42;11.18;;;10.00;;
51618;SDS011;38518;53.164;5.430;2023-05-10T04:42:08;12.07;;;10.07;;
51618;SDS011;38518;53.164;5.430;2023-05-10T04:44:34;11.52;;;9.27;;
51618;SDS011;38518;53.164;5.430;2023-05-10T04:47:00;9.85;;;8.82;;
51618;SDS011;38518;53.164;5.430;2023-05-10T04:49:27;7.80;;;7.05;;
51618;SDS011;38518;53.164;5.430;2023-05-10T04:51:53;8.98;;;7.18;;
51618;SDS011;38518;53.164;5.430;2023-05-10T04:54:19;10.35;;;8.93;;
51618;SDS011;38518;53.164;5.430;2023-05-10T04:56:44;10.57;;;8.35;;
51618;SDS011;38518;53.164;5.430;2023-05-10T04:59:10;10.00;;;8.40;;
51618;SDS011;38518;53.164;5.430;2023-05-10T05:01:36;11.20;;;9.88;;
51618;SDS011;38518;53.164;5.430;2023-05-10T05:04:02;11.65;;;9.35;;
51618;SDS011;38518;53.164;5.430;2023-05-10T05:06:28;10.95;;;7.63;;
51618;SDS011;38518;53.164;5.430;2023-05-10T05:08:53;12.25;;;8.00;;
51618;SDS011;38518;53.164;5.430;2023-05-10T05:11:19;10.80;;;7.20;;
51618;SDS011;38518;53.164;5.430;2023-05-10T05:13:46;8.20;;;5.85;;
51618;SDS011;38518;53.164;5.430;2023-05-10T05:16:11;9.48;;;6.35;;
51618;SDS011;38518;53.164;5.430;2023-05-10T05:18:37;9.40;;;6.20;;
51618;SDS011;38518;53.164;5.430;2023-05-10T05:21:13;12.35;;;7.78;;
51618;SDS011;38518;53.164;5.430;2023-05-10T05:23:40;9.70;;;7.00;;
51618;SDS011;38518;53.164;5.430;2023-05-10T05:26:06;8.48;;;5.85;;
51618;SDS011;38518;53.164;5.430;2023-05-10T05:28:32;8.90;;;5.50;;
51618;SDS011;38518;53.164;5.430;2023-05-10T05:31:02;6.00;;;5.40;;
51618;SDS011;38518;53.164;5.430;2023-05-10T05:33:30;9.07;;;5.30;;
51618;SDS011;38518;53.164;5.430;2023-05-10T05:35:56;7.25;;;4.03;;
51618;SDS011;38518;53.164;5.430;2023-05-10T05:38:22;8.38;;;3.90;;
51618;SDS011;38518;53.164;5.430;2023-05-10T05:40:47;5.10;;;3.42;;
51618;SDS011;38518;53.164;5.430;2023-05-10T05:43:13;3.97;;;3.10;;
51618;SDS011;38518;53.164;5.430;2023-05-10T05:45:39;5.13;;;3.47;;
51618;SDS011;38518;53.164;5.430;2023-05-10T05:48:05;4.00;;;3.60;;
51618;SDS011;38518;53.164;5.430;2023-05-10T05:50:30;4.40;;;3.53;;
51618;SDS011;38518;53.164;5.430;2023-05-10T05:52:56;3.67;;;3.03;;
51618;SDS011;38518;53.164;5.430;2023-05-10T05:55:22;3.92;;;3.22;;
51618;SDS011;38518;53.164;5.430;2023-05-10T05:57:49;3.67;;;2.70;;
51618;SDS011;38518;53.164;5.430;2023-05-10T06:00:15;4.78;;;3.78;;
51618;SDS011;38518;53.164;5.430;2023-05-10T06:02:41;4.97;;;4.10;;
51618;SDS011;38518;53.164;5.430;2023-05-10T06:05:07;4.93;;;4.30;;
51618;SDS011;38518;53.164;5.430;2023-05-10T06:07:33;5.65;;;3.95;;
51618;SDS011;38518;53.164;5.430;2023-05-10T06:09:59;7.82;;;4.15;;
51618;SDS011;38518;53.164;5.430;2023-05-10T06:12:24;6.78;;;4.45;;
51618;SDS011;38518;53.164;5.430;2023-05-10T06:14:50;14.25;;;6.53;;
51618;SDS011;38518;53.164;5.430;2023-05-10T06:17:16;8.63;;;6.28;;
51618;SDS011;38518;53.164;5.430;2023-05-10T06:19:43;10.45;;;7.07;;
51618;SDS011;38518;53.164;5.430;2023-05-10T06:22:08;12.40;;;6.88;;
51618;SDS011;38518;53.164;5.430;2023-05-10T06:24:34;9.63;;;6.07;;
51618;SDS011;38518;53.164;5.430;2023-05-10T06:27:00;6.82;;;5.43;;
51618;SDS011;38518;53.164;5.430;2023-05-10T06:29:27;5.72;;;4.60;;
51618;SDS011;38518;53.164;5.430;2023-05-10T06:31:53;5.28;;;4.50;;
51618;SDS011;38518;53.164;5.430;2023-05-10T06:34:19;7.32;;;4.13;;
51618;SDS011;38518;53.164;5.430;2023-05-10T06:36:45;4.80;;;4.18;;
51618;SDS011;38518;53.164;5.430;2023-05-10T06:39:10;4.22;;;3.42;;
51618;SDS011;38518;53.164;5.430;2023-05-10T06:41:37;4.70;;;4.07;;
51618;SDS011;38518;53.164;5.430;2023-05-10T06:44:03;4.10;;;3.70;;
51618;SDS011;38518;53.164;5.430;2023-05-10T06:46:29;4.15;;;3.75;;
51618;SDS011;38518;53.164;5.430;2023-05-10T06:48:55;4.80;;;3.65;;
51618;SDS011;38518;53.164;5.430;2023-05-10T06:51:20;3.30;;;3.00;;
51618;SDS011;38518;53.164;5.430;2023-05-10T06:53:46;3.83;;;3.05;;
51618;SDS011;38518;53.164;5.430;2023-05-10T06:56:12;3.67;;;3.10;;
51618;SDS011;38518;53.164;5.430;2023-05-10T06:58:38;4.22;;;2.90;;
51618;SDS011;38518;53.164;5.430;2023-05-10T07:01:04;2.95;;;2.50;;
51618;SDS011;38518;53.164;5.430;2023-05-10T07:03:31;2.88;;;2.47;;
51618;SDS011;38518;53.164;5.430;2023-05-10T07:06:03;4.18;;;2.30;;
51618;SDS011;38518;53.164;5.430;2023-05-10T07:08:30;2.53;;;2.30;;
51618;SDS011;38518;53.164;5.430;2023-05-10T07:11:03;3.75;;;2.72;;
51618;SDS011;38518;53.164;5.430;2023-05-10T07:13:32;2.63;;;2.40;;
51618;SDS011;38518;53.164;5.430;2023-05-10T07:15:58;3.78;;;2.92;;
51618;SDS011;38518;53.164;5.430;2023-05-10T07:18:25;3.97;;;3.00;;
51618;SDS011;38518;53.164;5.430;2023-05-10T07:20:51;3.42;;;3.08;;
51618;SDS011;38518;53.164;5.430;2023-05-10T07:23:17;3.97;;;3.45;;
51618;SDS011;38518;53.164;5.430;2023-05-10T07:25:47;4.68;;;3.38;;
51618;SDS011;38518;53.164;5.430;2023-05-10T07:28:14;4.53;;;3.60;;
51618;SDS011;38518;53.164;5.430;2023-05-10T07:30:40;5.65;;;3.33;;
51618;SDS011;38518;53.164;5.430;2023-05-10T07:33:06;5.25;;;3.70;;
51618;SDS011;38518;53.164;5.430;2023-05-10T07:35:33;4.05;;;3.50;;
51618;SDS011;38518;53.164;5.430;2023-05-10T07:37:59;3.45;;;3.15;;
51618;SDS011;38518;53.164;5.430;2023-05-10T07:40:25;3.60;;;3.25;;
51618;SDS011;38518;53.164;5.430;2023-05-10T07:42:51;3.38;;;3.08;;
51618;SDS011;38518;53.164;5.430;2023-05-10T07:45:17;3.95;;;3.65;;
51618;SDS011;38518;53.164;5.430;2023-05-10T07:47:43;4.10;;;3.70;;
51618;SDS011;38518;53.164;5.430;2023-05-10T07:50:09;6.93;;;4.80;;
51618;SDS011;38518;53.164;5.430;2023-05-10T07:52:35;6.05;;;5.10;;
51618;SDS011;38518;53.164;5.430;2023-05-10T07:55:01;7.45;;;5.97;;
51618;SDS011;38518;53.164;5.430;2023-05-10T07:57:27;8.93;;;6.60;;
51618;SDS011;38518;53.164;5.430;2023-05-10T07:59:53;7.05;;;6.35;;
51618;SDS011;38518;53.164;5.430;2023-05-10T08:02:24;7.10;;;6.40;;
51618;SDS011;38518;53.164;5.430;2023-05-10T08:04:50;6.80;;;5.80;;
51618;SDS011;38518;53.164;5.430;2023-05-10T08:07:16;8.00;;;6.50;;
51618;SDS011;38518;53.164;5.430;2023-05-10T08:09:42;12.25;;;7.68;;
51618;SDS011;38518;53.164;5.430;2023-05-10T08:12:08;10.45;;;8.90;;
51618;SDS011;38518;53.164;5.430;2023-05-10T08:14:34;9.80;;;8.80;;
51618;SDS011;38518;53.164;5.430;2023-05-10T08:17:02;11.60;;;9.15;;
51618;SDS011;38518;53.164;5.430;2023-05-10T08:19:28;9.35;;;7.90;;
51618;SDS011;38518;53.164;5.430;2023-05-10T08:21:54;11.40;;;8.40;;
51618;SDS011;38518;53.164;5.430;2023-05-10T08:24:21;9.48;;;8.32;;
51618;SDS011;38518;53.164;5.430;2023-05-10T08:26:47;12.55;;;9.13;;
51618;SDS011;38518;53.164;5.430;2023-05-10T08:29:13;10.95;;;8.80;;
51618;SDS011;38518;53.164;5.430;2023-05-10T08:31:39;10.00;;;8.63;;
51618;SDS011;38518;53.164;5.430;2023-05-10T08:34:05;10.02;;;7.63;;
51618;SDS011;38518;53.164;5.430;2023-05-10T08:36:31;9.18;;;6.80;;
51618;SDS011;38518;53.164;5.430;2023-05-10T08:38:57;9.88;;;7.57;;
51618;SDS011;38518;53.164;5.430;2023-05-10T08:41:23;10.88;;;8.50;;
51618;SDS011;38518;53.164;5.430;2023-05-10T08:43:51;11.48;;;9.43;;
51618;SDS011;38518;53.164;5.430;2023-05-10T08:46:19;13.38;;;10.43;;
51618;SDS011;38518;53.164;5.430;2023-05-10T08:48:46;11.90;;;10.40;;
51618;SDS011;38518;53.164;5.430;2023-05-10T08:51:13;11.80;;;10.60;;
51618;SDS011;38518;53.164;5.430;2023-05-10T08:53:42;11.30;;;10.18;;
51618;SDS011;38518;53.164;5.430;2023-05-10T08:56:09;10.45;;;9.40;;
51618;SDS011;38518;53.164;5.430;2023-05-10T08:58:35;11.60;;;9.82;;
51618;SDS011;38518;53.164;5.430;2023-05-10T09:01:02;10.82;;;9.80;;
51618;SDS011;38518;53.164;5.430;2023-05-10T09:03:29;10.32;;;9.32;;
51618;SDS011;38518;53.164;5.430;2023-05-10T09:05:56;10.32;;;9.32;;
51618;SDS011;38518;53.164;5.430;2023-05-10T09:08:22;9.48;;;8.57;;
51618;SDS011;38518;53.164;5.430;2023-05-10T09:10:52;9.63;;;8.73;;
51618;SDS011;38518;53.164;5.430;2023-05-10T09:13:19;10.10;;;9.10;;
51618;SDS011;38518;53.164;5.430;2023-05-10T09:15:47;10.68;;;9.57;;
51618;SDS011;38518;53.164;5.430;2023-05-10T09:18:15;11.02;;;9.93;;
51618;SDS011;38518;53.164;5.430;2023-05-10T09:20:40;11.95;;;10.80;;
51618;SDS011;38518;53.164;5.430;2023-05-10T09:23:07;12.32;;;11.13;;
51618;SDS011;38518;53.164;5.430;2023-05-10T09:25:33;14.43;;;12.50;;
51618;SDS011;38518;53.164;5.430;2023-05-10T09:27:59;15.10;;;12.77;;
51618;SDS011;38518;53.164;5.430;2023-05-10T09:30:26;14.40;;;12.90;;
51618;SDS011;38518;53.164;5.430;2023-05-10T09:32:53;13.57;;;12.23;;
51618;SDS011;38518;53.164;5.430;2023-05-10T09:35:20;14.98;;;13.30;;
51618;SDS011;38518;53.164;5.430;2023-05-10T09:37:52;14.40;;;12.95;;
51618;SDS011;38518;53.164;5.430;2023-05-10T09:40:22;13.77;;;12.38;;
51618;SDS011;38518;53.164;5.430;2023-05-10T09:43:08;13.52;;;12.13;;
51618;SDS011;38518;53.164;5.430;2023-05-10T09:45:35;14.15;;;12.73;;
51618;SDS011;38518;53.164;5.430;2023-05-10T09:48:02;13.68;;;12.25;;
51618;SDS011;38518;53.164;5.430;2023-05-10T09:50:28;13.85;;;12.45;;
51618;SDS011;38518;53.164;5.430;2023-05-10T09:52:56;13.07;;;11.63;;
51618;SDS011;38518;53.164;5.430;2023-05-10T09:55:39;10.52;;;9.60;;
51618;SDS011;38518;53.164;5.430;2023-05-10T09:58:05;9.45;;;8.55;;
51618;SDS011;38518;53.164;5.430;2023-05-10T10:00:36;9.77;;;8.90;;
51618;SDS011;38518;53.164;5.430;2023-05-10T10:03:03;10.52;;;9.43;;
51618;SDS011;38518;53.164;5.430;2023-05-10T10:05:32;9.00;;;8.07;;
51618;SDS011;38518;53.164;5.430;2023-05-10T10:07:59;8.13;;;7.40;;
51618;SDS011;38518;53.164;5.430;2023-05-10T10:10:27;8.60;;;7.80;;
51618;SDS011;38518;53.164;5.430;2023-05-10T10:12:53;8.70;;;7.90;;
51618;SDS011;38518;53.164;5.430;2023-05-10T10:15:20;9.45;;;8.50;;
51618;SDS011;38518;53.164;5.430;2023-05-10T10:17:48;9.68;;;8.77;;
51618;SDS011;38518;53.164;5.430;2023-05-10T10:20:14;9.68;;;8.77;;
51618;SDS011;38518;53.164;5.430;2023-05-10T10:22:41;8.25;;;7.45;;
51618;SDS011;38518;53.164;5.430;2023-05-10T10:25:10;8.65;;;7.85;;
51618;SDS011;38518;53.164;5.430;2023-05-10T10:30:21;7.88;;;7.05;;
51618;SDS011;38518;53.164;5.430;2023-05-10T10:35:41;8.13;;;7.43;;
51618;SDS011;38518;53.164;5.430;2023-05-10T10:38:10;9.18;;;8.35;;
51618;SDS011;38518;53.164;5.430;2023-05-10T10:40:38;9.93;;;8.93;;
51618;SDS011;38518;53.164;5.430;2023-05-10T10:43:22;10.70;;;9.70;;
51618;SDS011;38518;53.164;5.430;2023-05-10T10:48:38;10.80;;;9.73;;
51618;SDS011;38518;53.164;5.430;2023-05-10T10:51:04;12.23;;;11.10;;
51618;SDS011;38518;53.164;5.430;2023-05-10T10:53:30;13.13;;;11.82;;
51618;SDS011;38518;53.164;5.430;2023-05-10T10:56:06;13.73;;;12.32;;
51618;SDS011;38518;53.164;5.430;2023-05-10T10:58:35;14.13;;;12.70;;
51618;SDS011;38518;53.164;5.430;2023-05-10T11:01:15;15.60;;;13.77;;
51618;SDS011;38518;53.164;5.430;2023-05-10T11:04:16;19.73;;;16.27;;
51618;SDS011;38518;53.164;5.430;2023-05-10T11:06:40;15.27;;;13.05;;
51618;SDS011;38518;53.164;5.430;2023-05-10T11:09:08;16.45;;;14.75;;
51618;SDS011;38518;53.164;5.430;2023-05-10T11:11:36;16.48;;;14.63;;
51618;SDS011;38518;53.164;5.430;2023-05-10T11:14:13;16.20;;;14.50;;
51618;SDS011;38518;53.164;5.430;2023-05-10T11:16:42;16.58;;;14.80;;
51618;SDS011;38518;53.164;5.430;2023-05-10T11:19:10;17.67;;;15.77;;
51618;SDS011;38518;53.164;5.430;2023-05-10T11:21:47;17.38;;;15.48;;
51618;SDS011;38518;53.164;5.430;2023-05-10T11:24:56;18.63;;;16.20;;
51618;SDS011;38518;53.164;5.430;2023-05-10T11:27:23;20.65;;;17.80;;
51618;SDS011;38518;53.164;5.430;2023-05-10T11:29:52;18.70;;;16.70;;
51618;SDS011;38518;53.164;5.430;2023-05-10T11:32:18;19.92;;;17.67;;
51618;SDS011;38518;53.164;5.430;2023-05-10T11:34:46;20.13;;;18.08;;
51618;SDS011;38518;53.164;5.430;2023-05-10T11:37:13;20.25;;;17.27;;
51618;SDS011;38518;53.164;5.430;2023-05-10T11:39:39;18.40;;;16.48;;
51618;SDS011;38518;53.164;5.430;2023-05-10T11:42:12;21.25;;;17.02;;
51618;SDS011;38518;53.164;5.430;2023-05-10T11:44:38;17.70;;;15.23;;
51618;SDS011;38518;53.164;5.430;2023-05-10T11:47:04;15.68;;;14.18;;
51618;SDS011;38518;53.164;5.430;2023-05-10T11:49:30;15.05;;;13.65;;
51618;SDS011;38518;53.164;5.430;2023-05-10T11:52:06;14.18;;;12.77;;
51618;SDS011;38518;53.164;5.430;2023-05-10T11:54:32;14.60;;;13.20;;
51618;SDS011;38518;53.164;5.430;2023-05-10T11:57:00;15.70;;;14.18;;
51618;SDS011;38518;53.164;5.430;2023-05-10T11:59:25;14.50;;;13.00;;
51618;SDS011;38518;53.164;5.430;2023-05-10T12:01:51;13.32;;;12.00;;
51618;SDS011;38518;53.164;5.430;2023-05-10T12:04:17;14.27;;;12.88;;
51618;SDS011;38518;53.164;5.430;2023-05-10T12:06:43;12.35;;;11.15;;
51618;SDS011;38518;53.164;5.430;2023-05-10T12:09:10;13.02;;;11.82;;
51618;SDS011;38518;53.164;5.430;2023-05-10T12:11:36;12.15;;;11.00;;
51618;SDS011;38518;53.164;5.430;2023-05-10T12:14:06;13.43;;;11.38;;
51618;SDS011;38518;53.164;5.430;2023-05-10T12:16:33;13.27;;;11.98;;
51618;SDS011;38518;53.164;5.430;2023-05-10T12:19:00;14.40;;;13.00;;
51618;SDS011;38518;53.164;5.430;2023-05-10T12:21:26;12.80;;;11.50;;
51618;SDS011;38518;53.164;5.430;2023-05-10T12:23:54;11.40;;;10.30;;
51618;SDS011;38518;53.164;5.430;2023-05-10T12:26:24;10.65;;;9.75;;
51618;SDS011;38518;53.164;5.430;2023-05-10T12:28:52;9.32;;;8.52;;
51618;SDS011;38518;53.164;5.430;2023-05-10T12:31:18;9.05;;;8.30;;
51618;SDS011;38518;53.164;5.430;2023-05-10T12:33:44;8.95;;;7.93;;
51618;SDS011;38518;53.164;5.430;2023-05-10T12:36:14;8.23;;;7.53;;
51618;SDS011;38518;53.164;5.430;2023-05-10T12:38:48;8.35;;;7.65;;
51618;SDS011;38518;53.164;5.430;2023-05-10T12:41:15;8.30;;;7.55;;
51618;SDS011;38518;53.164;5.430;2023-05-10T12:43:42;6.88;;;6.38;;
51618;SDS011;38518;53.164;5.430;2023-05-10T12:46:09;7.85;;;7.25;;
51618;SDS011;38518;53.164;5.430;2023-05-10T12:48:39;8.35;;;7.65;;
51618;SDS011;38518;53.164;5.430;2023-05-10T12:51:06;6.18;;;5.68;;
51618;SDS011;38518;53.164;5.430;2023-05-10T12:53:37;5.88;;;5.40;;
51618;SDS011;38518;53.164;5.430;2023-05-10T12:56:04;6.40;;;5.90;;
51618;SDS011;38518;53.164;5.430;2023-05-10T12:58:30;5.93;;;5.50;;
51618;SDS011;38518;53.164;5.430;2023-05-10T13:00:57;4.85;;;4.53;;
51618;SDS011;38518;53.164;5.430;2023-05-10T13:03:23;5.28;;;4.88;;
51618;SDS011;38518;53.164;5.430;2023-05-10T13:05:48;4.40;;;4.10;;
51618;SDS011;38518;53.164;5.430;2023-05-10T13:08:14;4.30;;;4.00;;
51618;SDS011;38518;53.164;5.430;2023-05-10T13:10:40;5.30;;;4.80;;
51618;SDS011;38518;53.164;5.430;2023-05-10T13:13:06;5.60;;;5.10;;
51618;SDS011;38518;53.164;5.430;2023-05-10T13:15:33;6.15;;;5.65;;
51618;SDS011;38518;53.164;5.430;2023-05-10T13:17:59;6.05;;;5.50;;
51618;SDS011;38518;53.164;5.430;2023-05-10T13:20:25;4.93;;;4.43;;
51618;SDS011;38518;53.164;5.430;2023-05-10T13:22:51;4.85;;;4.32;;
51618;SDS011;38518;53.164;5.430;2023-05-10T13:25:16;4.50;;;4.10;;
51618;SDS011;38518;53.164;5.430;2023-05-10T13:27:42;6.28;;;4.43;;
51618;SDS011;38518;53.164;5.430;2023-05-10T13:30:08;5.00;;;4.60;;
51618;SDS011;38518;53.164;5.430;2023-05-10T13:32:36;4.10;;;3.80;;
51618;SDS011;38518;53.164;5.430;2023-05-10T13:35:02;3.80;;;3.42;;
51618;SDS011;38518;53.164;5.430;2023-05-10T13:37:29;4.00;;;3.70;;
51618;SDS011;38518;53.164;5.430;2023-05-10T13:39:55;4.25;;;3.95;;
51618;SDS011;38518;53.164;5.430;2023-05-10T13:42:22;5.28;;;4.78;;
51618;SDS011;38518;53.164;5.430;2023-05-10T13:44:48;4.70;;;4.30;;
51618;SDS011;38518;53.164;5.430;2023-05-10T13:47:15;5.50;;;5.10;;
51618;SDS011;38518;53.164;5.430;2023-05-10T13:49:40;6.00;;;5.32;;
51618;SDS011;38518;53.164;5.430;2023-05-10T13:52:06;6.10;;;5.60;;
51618;SDS011;38518;53.164;5.430;2023-05-10T13:54:33;6.60;;;6.05;;
51618;SDS011;38518;53.164;5.430;2023-05-10T13:56:59;6.75;;;6.10;;
51618;SDS011;38518;53.164;5.430;2023-05-10T13:59:25;6.78;;;6.18;;
51618;SDS011;38518;53.164;5.430;2023-05-10T14:01:56;6.45;;;5.95;;
51618;SDS011;38518;53.164;5.430;2023-05-10T14:04:22;7.90;;;7.30;;
51618;SDS011;38518;53.164;5.430;2023-05-10T14:06:48;7.90;;;7.20;;
51618;SDS011;38518;53.164;5.430;2023-05-10T14:09:14;6.90;;;6.30;;
51618;SDS011;38518;53.164;5.430;2023-05-10T14:11:40;7.50;;;6.90;;
51618;SDS011;38518;53.164;5.430;2023-05-10T14:14:08;7.68;;;7.05;;
51618;SDS011;38518;53.164;5.430;2023-05-10T14:16:34;6.60;;;5.80;;
51618;SDS011;38518;53.164;5.430;2023-05-10T14:19:00;6.20;;;5.70;;
51618;SDS011;38518;53.164;5.430;2023-05-10T14:21:26;6.07;;;5.57;;
51618;SDS011;38518;53.164;5.430;2023-05-10T14:23:55;5.38;;;4.95;;
51618;SDS011;38518;53.164;5.430;2023-05-10T14:26:21;6.97;;;6.38;;
51618;SDS011;38518;53.164;5.430;2023-05-10T14:28:47;6.78;;;6.18;;
51618;SDS011;38518;53.164;5.430;2023-05-10T14:31:13;6.85;;;6.25;;
51618;SDS011;38518;53.164;5.430;2023-05-10T14:33:39;6.68;;;6.07;;
51618;SDS011;38518;53.164;5.430;2023-05-10T14:36:06;6.88;;;6.30;;
51618;SDS011;38518;53.164;5.430;2023-05-10T14:38:32;6.32;;;5.72;;
51618;SDS011;38518;53.164;5.430;2023-05-10T14:40:58;6.55;;;6.00;;
51618;SDS011;38518;53.164;5.430;2023-05-10T14:43:23;7.93;;;7.32;;
51618;SDS011;38518;53.164;5.430;2023-05-10T14:45:49;6.95;;;6.32;;
51618;SDS011;38518;53.164;5.430;2023-05-10T14:48:15;7.38;;;6.75;;
51618;SDS011;38518;53.164;5.430;2023-05-10T14:50:42;7.47;;;6.88;;
51618;SDS011;38518;53.164;5.430;2023-05-10T14:53:08;5.55;;;5.15;;
51618;SDS011;38518;53.164;5.430;2023-05-10T14:55:34;4.78;;;4.45;;
51618;SDS011;38518;53.164;5.430;2023-05-10T14:58:04;6.43;;;5.90;;
51618;SDS011;38518;53.164;5.430;2023-05-10T15:00:30;5.50;;;5.10;;
51618;SDS011;38518;53.164;5.430;2023-05-10T15:02:56;6.22;;;5.72;;
51618;SDS011;38518;53.164;5.430;2023-05-10T15:05:22;5.90;;;5.40;;